Time;durP1;ratioP1;P1;durP2;ratioP2;P2;SDS_P1;SDS_P2;PMS_P1;PMS_P2;Temp;Humidity;BMP_temperature;BMP_pressure;BME280_temperature;BME280_humidity;BME280_pressure;Samples;Min_cycle;Max_cycle;Signal;HPM_P1;HPM_P2
2021/06/29 00:01:22;;;;;;;5.22;4.20;;;25.60;99.90;;;;;;5075872;28;20658;-58
2021/06/29 00:03:48;;;;;;;6.80;4.10;;;25.10;99.90;;;;;;5076741;28;20190;-57
2021/06/29 00:06:13;;;;;;;6.53;4.50;;;24.30;99.90;;;;;;5076469;28;20177;-59
2021/06/29 00:08:39;;;;;;;5.38;4.40;;;23.70;99.90;;;;;;5075039;28;20182;-51
2021/06/29 00:11:04;;;;;;;5.07;4.60;;;23.50;99.90;;;;;;5076639;28;20522;-56
2021/06/29 00:13:30;;;;;;;6.85;4.55;;;23.50;99.90;;;;;;5076854;28;20166;-60
2021/06/29 00:15:56;;;;;;;7.70;4.35;;;23.40;99.90;;;;;;5076780;28;20173;-56
2021/06/29 00:18:22;;;;;;;4.80;4.25;;;23.40;99.90;;;;;;5076677;28;20265;-59
2021/06/29 00:20:47;;;;;;;5.95;4.38;;;23.50;99.90;;;;;;5076695;28;20198;-55
2021/06/29 00:23:13;;;;;;;4.72;4.32;;;23.50;99.90;;;;;;5075289;28;20194;-52
2021/06/29 00:25:38;;;;;;;4.22;3.83;;;23.60;99.90;;;;;;5076544;28;20628;-58
2021/06/29 00:28:04;;;;;;;3.90;3.60;;;23.60;99.90;;;;;;5076269;28;20193;-57
2021/06/29 00:30:30;;;;;;;5.75;4.07;;;23.60;99.90;;;;;;5075854;28;20171;-58
2021/06/29 00:32:55;;;;;;;4.75;3.60;;;23.60;99.90;;;;;;5076338;28;20206;-59
2021/06/29 00:35:21;;;;;;;5.82;3.38;;;23.60;99.90;;;;;;5075419;28;20190;-59
2021/06/29 00:37:46;;;;;;;9.88;3.00;;;23.60;99.90;;;;;;5076280;28;20241;-50
2021/06/29 00:40:13;;;;;;;6.18;2.50;;;23.40;99.90;;;;;;5074685;28;20462;-50
2021/06/29 00:42:39;;;;;;;4.30;2.33;;;23.10;99.90;;;;;;5075685;28;20547;-54
2021/06/29 00:45:06;;;;;;;3.65;2.25;;;22.80;99.90;;;;;;5076324;28;20174;-59
2021/06/29 00:47:32;;;;;;;2.88;2.50;;;22.70;99.90;;;;;;5076044;28;20566;-54
2021/06/29 00:49:57;;;;;;;3.67;2.35;;;22.40;99.90;;;;;;5075108;28;20174;-57
2021/06/29 00:52:23;;;;;;;4.03;2.35;;;22.10;99.90;;;;;;5074882;28;20197;-57
2021/06/29 00:54:50;;;;;;;3.08;2.00;;;22.10;99.90;;;;;;5075979;28;20620;-52
2021/06/29 00:57:16;;;;;;;3.65;2.22;;;22.20;99.90;;;;;;5075882;28;20669;-58
2021/06/29 00:59:42;;;;;;;3.97;2.20;;;22.10;99.90;;;;;;5074792;28;20223;-54
2021/06/29 01:02:09;;;;;;;3.65;2.45;;;22.00;99.90;;;;;;5075614;28;20172;-50
2021/06/29 01:04:37;;;;;;;2.75;2.30;;;21.90;99.90;;;;;;5074819;28;20191;-60
2021/06/29 01:07:05;;;;;;;3.65;2.38;;;21.90;99.90;;;;;;5075941;28;20200;-57
2021/06/29 01:09:32;;;;;;;3.78;2.33;;;22.00;99.90;;;;;;5075813;28;20169;-54
2021/06/29 01:11:57;;;;;;;2.97;2.10;;;22.00;99.90;;;;;;5073360;28;20202;-54
2021/06/29 01:14:23;;;;;;;4.40;1.90;;;22.10;99.90;;;;;;5075481;28;20558;-50
2021/06/29 01:16:49;;;;;;;2.72;2.30;;;22.30;99.90;;;;;;5074582;28;20192;-57
2021/06/29 01:19:19;;;;;;;1.83;1.73;;;22.30;99.90;;;;;;5075442;28;20257;-54
2021/06/29 01:21:47;;;;;;;3.60;1.90;;;22.40;99.90;;;;;;5074437;28;20167;-60
2021/06/29 01:24:18;;;;;;;2.45;2.00;;;22.50;99.90;;;;;;5075584;28;20388;-52
2021/06/29 01:26:51;;;;;;;3.70;2.10;;;22.50;99.90;;;;;;5076016;28;20597;-59
2021/06/29 01:29:19;;;;;;;2.20;2.00;;;22.60;99.90;;;;;;5075544;28;20181;-52
2021/06/29 01:31:45;;;;;;;1.90;1.77;;;22.70;99.90;;;;;;5073913;28;20229;-54
2021/06/29 01:34:10;;;;;;;3.78;2.28;;;22.80;99.90;;;;;;5075279;28;20189;-60
2021/06/29 01:36:39;;;;;;;3.15;2.10;;;23.00;99.90;;;;;;5074482;28;20181;-53
2021/06/29 01:39:10;;;;;;;2.72;2.30;;;23.10;99.90;;;;;;5073769;28;20232;-53
2021/06/29 01:41:36;;;;;;;3.15;2.15;;;23.10;99.90;;;;;;5074980;28;20201;-60
2021/06/29 01:46:31;;;;;;;2.88;1.83;;;22.90;99.90;;;;;;5074263;28;20179;-55
2021/06/29 01:48:57;;;;;;;2.17;1.98;;;22.90;99.90;;;;;;5074805;28;20209;-56
2021/06/29 01:51:23;;;;;;;2.60;2.40;;;23.00;99.90;;;;;;5074836;28;20189;-59
2021/06/29 01:53:51;;;;;;;2.90;2.70;;;23.00;99.90;;;;;;5073845;28;20534;-54
2021/06/29 01:56:18;;;;;;;3.33;3.03;;;23.00;99.90;;;;;;5074958;28;20177;-57
2021/06/29 01:58:54;;;;;;;2.70;2.50;;;23.10;99.90;;;;;;5074819;28;20206;-51
2021/06/29 02:01:21;;;;;;;2.78;2.00;;;22.80;99.90;;;;;;5074733;28;20188;-58
2021/06/29 02:03:47;;;;;;;6.18;2.42;;;22.40;99.90;;;;;;5072288;28;20196;-55
2021/06/29 02:06:15;;;;;;;4.15;2.20;;;21.80;99.90;;;;;;5074605;28;20178;-54
2021/06/29 02:08:40;;;;;;;4.00;1.90;;;21.40;99.90;;;;;;5073540;28;20595;-56
2021/06/29 02:11:06;;;;;;;3.00;2.30;;;21.20;99.90;;;;;;5074485;28;20273;-57
2021/06/29 02:13:31;;;;;;;3.03;2.15;;;21.10;99.90;;;;;;5074379;28;20163;-61
2021/06/29 02:15:59;;;;;;;2.90;2.05;;;21.10;99.90;;;;;;5073427;28;20562;-56
2021/06/29 02:18:24;;;;;;;2.90;2.17;;;21.10;99.90;;;;;;5074200;28;20705;-50
2021/06/29 02:20:50;;;;;;;2.10;1.90;;;20.90;99.90;;;;;;5073147;28;20316;-52
2021/06/29 02:23:16;;;;;;;3.67;1.87;;;20.80;99.90;;;;;;5074331;28;20623;-58
2021/06/29 02:25:42;;;;;;;3.40;1.93;;;20.70;99.90;;;;;;5074422;28;20627;-52
2021/06/29 02:28:08;;;;;;;3.33;1.50;;;20.50;99.90;;;;;;5072944;28;20194;-54
2021/06/29 02:30:34;;;;;;;2.17;1.80;;;20.50;99.90;;;;;;5074360;28;20182;-60
2021/06/29 02:32:59;;;;;;;3.57;1.90;;;20.40;99.90;;;;;;5072985;28;20218;-56
2021/06/29 02:35:25;;;;;;;4.40;1.90;;;20.40;99.90;;;;;;5073990;28;20179;-60
2021/06/29 02:37:51;;;;;;;2.60;1.50;;;20.30;99.90;;;;;;5074003;28;20247;-58
2021/06/29 02:40:17;;;;;;;1.63;1.40;;;20.10;99.90;;;;;;5073944;28;20198;-53
2021/06/29 02:42:42;;;;;;;4.87;1.60;;;20.10;99.90;;;;;;5072687;28;20658;-60
2021/06/29 02:45:08;;;;;;;1.80;1.57;;;20.10;99.90;;;;;;5074134;28;20184;-50
2021/06/29 02:47:35;;;;;;;3.47;1.47;;;20.00;99.90;;;;;;5072601;28;20202;-58
2021/06/29 02:50:03;;;;;;;2.80;1.90;;;20.00;99.90;;;;;;5073119;28;20174;-57
2021/06/29 02:52:29;;;;;;;3.23;2.10;;;20.00;99.90;;;;;;5073634;28;20534;-55
2021/06/29 02:54:54;;;;;;;3.27;1.80;;;20.00;99.90;;;;;;5073004;28;20688;-56
2021/06/29 02:57:20;;;;;;;4.27;2.03;;;20.00;99.90;;;;;;5073384;28;20277;-54
2021/06/29 02:59:46;;;;;;;2.00;1.77;;;20.10;99.90;;;;;;5073636;28;20201;-58
2021/06/29 03:02:11;;;;;;;1.70;1.60;;;20.10;99.90;;;;;;5072079;28;20171;-50
2021/06/29 03:04:37;;;;;;;1.83;1.73;;;20.10;99.90;;;;;;5073733;28;20642;-58
2021/06/29 03:07:03;;;;;;;1.87;1.77;;;20.10;99.90;;;;;;5072624;28;20198;-61
2021/06/29 03:09:28;;;;;;;3.10;1.93;;;20.10;99.90;;;;;;5073659;28;20167;-56
2021/06/29 03:11:54;;;;;;;2.00;1.90;;;20.00;99.90;;;;;;5071637;28;20182;-51
2021/06/29 03:14:19;;;;;;;2.00;1.70;;;19.90;99.90;;;;;;5073436;28;20178;-50
2021/06/29 03:16:45;;;;;;;2.53;1.93;;;19.80;99.90;;;;;;5073550;28;20277;-50
2021/06/29 03:19:10;;;;;;;3.23;2.13;;;19.90;99.90;;;;;;5073588;28;20235;-56
2021/06/29 03:21:36;;;;;;;2.40;2.20;;;19.90;99.90;;;;;;5072708;28;20187;-59
2021/06/29 03:24:03;;;;;;;2.33;2.10;;;19.90;99.90;;;;;;5073211;28;20550;-55
2021/06/29 03:26:28;;;;;;;3.40;1.90;;;20.00;99.90;;;;;;5073559;28;20181;-58
2021/06/29 03:28:54;;;;;;;2.07;1.97;;;20.00;99.90;;;;;;5072441;28;20170;-50
2021/06/29 03:31:20;;;;;;;2.53;2.10;;;20.00;99.90;;;;;;5073666;28;20171;-53
2021/06/29 03:33:45;;;;;;;3.53;2.57;;;20.00;99.90;;;;;;5072423;28;20221;-60
2021/06/29 03:36:11;;;;;;;3.77;2.70;;;19.90;99.90;;;;;;5073523;28;20627;-55
2021/06/29 03:38:38;;;;;;;2.70;2.50;;;19.90;99.90;;;;;;5073359;28;20201;-56
2021/06/29 03:41:03;;;;;;;3.80;2.70;;;19.90;99.90;;;;;;5072162;28;20296;-60
2021/06/29 03:43:33;;;;;;;3.07;2.77;;;19.90;99.90;;;;;;5073517;28;20725;-50
2021/06/29 03:45:58;;;;;;;2.80;2.60;;;19.80;99.90;;;;;;5072255;28;20237;-52
2021/06/29 03:48:24;;;;;;;3.10;2.80;;;19.80;99.90;;;;;;5073238;28;20595;-52
2021/06/29 03:50:49;;;;;;;2.97;2.77;;;19.70;99.90;;;;;;5073467;28;20566;-59
2021/06/29 03:53:15;;;;;;;3.13;2.93;;;19.70;99.90;;;;;;5072037;28;20539;-58
2021/06/29 03:55:40;;;;;;;3.60;3.30;;;19.80;99.90;;;;;;5073490;28;20212;-57
2021/06/29 03:58:06;;;;;;;3.80;3.40;;;19.80;99.90;;;;;;5073122;28;20271;-61
2021/06/29 04:00:31;;;;;;;4.47;3.47;;;20.40;99.90;;;;;;5071952;28;20225;-55
2021/06/29 04:02:57;;;;;;;3.33;3.10;;;19.70;99.90;;;;;;5072820;28;20202;-56
2021/06/29 04:05:22;;;;;;;3.83;3.40;;;19.80;99.90;;;;;;5072970;28;20187;-60
2021/06/29 04:07:48;;;;;;;4.07;3.67;;;19.90;99.90;;;;;;5072138;28;20190;-55
2021/06/29 04:10:14;;;;;;;3.60;3.30;;;19.90;99.90;;;;;;5073249;28;20179;-61
2021/06/29 04:12:40;;;;;;;4.53;3.50;;;20.00;99.90;;;;;;5073146;28;20266;-52
2021/06/29 04:15:07;;;;;;;4.23;3.83;;;20.00;99.90;;;;;;5075059;28;20261;-52
2021/06/29 04:17:32;;;;;;;5.40;3.37;;;19.90;99.90;;;;;;5076508;28;20191;-52
2021/06/29 04:19:58;;;;;;;3.80;3.47;;;19.90;99.90;;;;;;5076726;28;20205;-55
2021/06/29 04:22:24;;;;;;;4.33;3.50;;;20.00;99.90;;;;;;5075635;28;20181;-52
2021/06/29 04:24:49;;;;;;;5.03;3.70;;;19.90;99.90;;;;;;5076437;28;20175;-59
2021/06/29 04:27:15;;;;;;;4.20;3.80;;;19.80;99.90;;;;;;5076533;28;20197;-56
2021/06/29 04:29:42;;;;;;;4.13;3.83;;;19.80;99.90;;;;;;5075742;28;20206;-51
2021/06/29 04:32:07;;;;;;;4.17;3.70;;;19.70;99.90;;;;;;5076278;28;20171;-59
2021/06/29 04:34:33;;;;;;;4.50;4.10;;;19.60;99.90;;;;;;5076474;28;20308;-59
2021/06/29 04:36:59;;;;;;;4.47;3.10;;;19.70;99.90;;;;;;5075297;28;20289;-54
2021/06/29 04:39:24;;;;;;;4.03;3.53;;;19.70;99.90;;;;;;5075991;28;20201;-53
2021/06/29 04:41:50;;;;;;;4.83;3.10;;;19.70;99.90;;;;;;5075709;28;20174;-52
2021/06/29 04:44:15;;;;;;;4.33;3.27;;;19.80;99.90;;;;;;5075651;28;20529;-59
2021/06/29 04:46:41;;;;;;;3.27;2.97;;;19.80;99.90;;;;;;5076260;28;20184;-58
2021/06/29 04:49:06;;;;;;;3.40;3.10;;;19.90;99.90;;;;;;5076200;28;20252;-61
2021/06/29 04:51:32;;;;;;;4.10;3.40;;;19.80;99.90;;;;;;5075969;28;20269;-58
2021/06/29 04:53:58;;;;;;;3.63;3.33;;;19.90;99.90;;;;;;5074880;28;20201;-60
2021/06/29 04:56:23;;;;;;;4.13;3.27;;;20.00;99.90;;;;;;5075962;28;20202;-50
2021/06/29 04:58:53;;;;;;;3.50;3.20;;;20.00;99.90;;;;;;5074887;28;20249;-53
2021/06/29 05:01:19;;;;;;;3.40;3.10;;;20.20;99.90;;;;;;5075719;28;20182;-60
2021/06/29 05:03:45;;;;;;;3.83;3.53;;;20.20;99.90;;;;;;5075746;28;20190;-55
2021/06/29 05:06:11;;;;;;;3.40;3.20;;;20.20;99.90;;;;;;5075548;28;20179;-61
2021/06/29 05:08:37;;;;;;;3.47;3.20;;;20.10;99.90;;;;;;5075000;28;20195;-58
2021/06/29 05:11:02;;;;;;;4.93;3.70;;;20.10;99.90;;;;;;5075445;28;20212;-50
2021/06/29 05:13:28;;;;;;;5.17;3.03;;;20.20;99.90;;;;;;5074776;28;20649;-60
2021/06/29 05:15:54;;;;;;;4.23;3.20;;;20.20;99.90;;;;;;5065948;28;20626;-59
2021/06/29 05:18:19;;;;;;;3.77;3.37;;;20.00;99.90;;;;;;5067711;28;20222;-55
2021/06/29 05:20:45;;;;;;;3.53;3.23;;;20.00;99.90;;;;;;5074555;28;20301;-54
2021/06/29 05:23:11;;;;;;;5.63;3.70;;;20.00;99.90;;;;;;5075301;28;20252;-57
2021/06/29 05:25:36;;;;;;;4.00;3.70;;;20.10;99.90;;;;;;5075142;28;20183;-54
2021/06/29 05:28:02;;;;;;;4.03;3.73;;;20.00;99.90;;;;;;5074624;28;20201;-54
2021/06/29 05:30:28;;;;;;;4.27;3.97;;;20.00;99.90;;;;;;5075145;28;20671;-57
2021/06/29 05:32:54;;;;;;;4.43;4.03;;;19.90;99.90;;;;;;5069042;28;20273;-53
2021/06/29 05:35:20;;;;;;;4.03;3.73;;;19.90;99.90;;;;;;5059113;28;20186;-58
2021/06/29 05:37:45;;;;;;;4.40;4.00;;;20.00;99.90;;;;;;5054434;28;20187;-56
2021/06/29 05:40:12;;;;;;;4.30;4.00;;;19.90;99.90;;;;;;5068633;28;20264;-59
2021/06/29 05:42:38;;;;;;;4.37;3.97;;;20.00;99.90;;;;;;5067139;28;20186;-51
2021/06/29 05:45:05;;;;;;;5.43;4.20;;;20.00;99.90;;;;;;5054496;28;20195;-59
2021/06/29 05:47:33;;;;;;;6.10;3.90;;;20.10;99.90;;;;;;5060321;28;20201;-54
2021/06/29 05:49:59;;;;;;;4.20;3.90;;;20.10;99.90;;;;;;5074395;28;20649;-60
2021/06/29 05:52:25;;;;;;;4.77;4.37;;;20.00;99.90;;;;;;5074340;28;20179;-59
2021/06/29 05:54:51;;;;;;;4.20;3.80;;;20.00;99.90;;;;;;5075210;28;20527;-50
2021/06/29 05:57:17;;;;;;;5.13;4.30;;;20.00;99.90;;;;;;5072746;28;20230;-59
2021/06/29 05:59:43;;;;;;;4.30;3.90;;;20.00;99.90;;;;;;5070545;28;20213;-58
2021/06/29 06:02:09;;;;;;;5.30;4.13;;;20.00;99.90;;;;;;5070772;28;20185;-55
2021/06/29 06:04:35;;;;;;;5.30;4.07;;;20.00;99.90;;;;;;5065280;28;20668;-59
2021/06/29 06:07:01;;;;;;;4.77;4.10;;;20.00;99.90;;;;;;5055606;28;20195;-53
2021/06/29 06:09:26;;;;;;;4.20;3.90;;;20.10;99.90;;;;;;5073868;28;20196;-55
2021/06/29 06:11:52;;;;;;;4.40;4.00;;;20.10;99.90;;;;;;5074067;28;20209;-57
2021/06/29 06:14:17;;;;;;;4.27;3.60;;;20.30;99.90;;;;;;5073711;28;20594;-56
2021/06/29 06:16:43;;;;;;;4.23;3.83;;;20.50;99.90;;;;;;5074672;28;20205;-50
2021/06/29 06:19:08;;;;;;;5.93;3.87;;;20.60;99.90;;;;;;5074490;28;20210;-50
2021/06/29 06:21:34;;;;;;;5.50;4.90;;;20.60;99.90;;;;;;5074637;28;20258;-52
2021/06/29 06:23:59;;;;;;;4.87;4.33;;;20.40;99.90;;;;;;5073588;28;20225;-50
2021/06/29 06:26:25;;;;;;;6.07;4.47;;;20.30;99.90;;;;;;5073892;28;20213;-52
2021/06/29 06:28:51;;;;;;;4.90;4.50;;;20.20;99.90;;;;;;5073520;28;20270;-59
2021/06/29 06:31:16;;;;;;;5.00;4.30;;;20.20;99.90;;;;;;5074204;28;20584;-57
2021/06/29 06:33:42;;;;;;;5.47;4.97;;;20.10;99.90;;;;;;5074478;28;20189;-58
2021/06/29 06:36:08;;;;;;;5.33;4.30;;;20.00;99.90;;;;;;5073298;28;20196;-55
2021/06/29 06:38:33;;;;;;;4.90;4.50;;;19.90;99.90;;;;;;5073665;28;20219;-54
2021/06/29 06:40:59;;;;;;;6.03;4.93;;;20.00;99.90;;;;;;5073099;28;20230;-57
2021/06/29 06:43:24;;;;;;;5.17;4.73;;;20.00;99.90;;;;;;5074230;28;20177;-54
2021/06/29 06:45:50;;;;;;;4.87;4.40;;;20.10;99.90;;;;;;5074282;28;20171;-60
2021/06/29 06:48:15;;;;;;;4.60;4.13;;;20.10;99.90;;;;;;5072967;28;20206;-58
2021/06/29 06:50:41;;;;;;;5.73;4.77;;;20.10;99.90;;;;;;5073010;28;20178;-53
2021/06/29 06:53:06;;;;;;;7.77;5.00;;;20.20;99.90;;;;;;5072936;28;20220;-52
2021/06/29 06:55:32;;;;;;;5.23;4.73;;;20.00;99.90;;;;;;5074144;28;20209;-55
2021/06/29 06:57:58;;;;;;;5.80;5.17;;;19.90;99.90;;;;;;5074125;28;20265;-59
2021/06/29 07:00:26;;;;;;;5.20;4.77;;;19.90;99.90;;;;;;5073944;28;20285;-54
2021/06/29 07:02:54;;;;;;;5.67;4.83;;;19.90;99.90;;;;;;5073643;28;20229;-56
2021/06/29 07:05:20;;;;;;;5.07;4.60;;;19.90;99.90;;;;;;5072915;28;20189;-55
2021/06/29 07:07:45;;;;;;;5.50;4.70;;;20.00;99.90;;;;;;5073805;28;20249;-54
2021/06/29 07:10:11;;;;;;;5.80;5.30;;;20.10;99.90;;;;;;5073340;28;20179;-53
2021/06/29 07:12:37;;;;;;;5.60;5.10;;;20.00;99.90;;;;;;5073517;28;20178;-53
2021/06/29 07:15:04;;;;;;;5.23;4.83;;;20.10;99.90;;;;;;5073919;28;20186;-55
2021/06/29 07:17:30;;;;;;;5.57;5.07;;;20.20;99.90;;;;;;5072640;28;20199;-56
2021/06/29 07:19:55;;;;;;;5.40;4.90;;;20.30;99.90;;;;;;5073737;28;20218;-56
2021/06/29 07:22:21;;;;;;;5.20;4.60;;;20.30;99.90;;;;;;5072687;28;20171;-61
2021/06/29 07:24:47;;;;;;;4.70;4.30;;;20.40;99.90;;;;;;5073909;28;20656;-56
2021/06/29 07:27:13;;;;;;;5.10;4.60;;;20.50;99.90;;;;;;5072403;28;20214;-58
2021/06/29 07:29:39;;;;;;;5.83;5.23;;;20.70;99.90;;;;;;5073568;28;20175;-59
2021/06/29 07:32:05;;;;;;;7.00;5.07;;;20.50;99.90;;;;;;5073087;28;20711;-59
2021/06/29 07:34:31;;;;;;;6.37;5.20;;;20.40;99.90;;;;;;5073042;28;20626;-54
2021/06/29 07:36:56;;;;;;;5.97;5.30;;;20.30;99.90;;;;;;5073404;28;20217;-57
2021/06/29 07:39:23;;;;;;;6.50;5.60;;;20.20;99.90;;;;;;5073496;28;20532;-61
2021/06/29 07:41:48;;;;;;;5.97;5.47;;;20.10;99.90;;;;;;5072680;28;20194;-57
2021/06/29 07:44:14;;;;;;;5.87;5.27;;;20.00;99.90;;;;;;5073112;28;20236;-52
2021/06/29 07:46:40;;;;;;;6.10;5.43;;;20.00;99.90;;;;;;5073513;28;20171;-55
2021/06/29 07:49:05;;;;;;;5.70;5.20;;;20.10;99.90;;;;;;5074657;28;20181;-50
2021/06/29 07:51:32;;;;;;;6.00;5.50;;;20.20;99.90;;;;;;5077229;28;20538;-57
2021/06/29 07:53:58;;;;;;;6.13;5.63;;;20.30;99.90;;;;;;5076444;28;20234;-60
2021/06/29 07:56:24;;;;;;;6.30;5.70;;;20.30;99.90;;;;;;5077212;28;20581;-61
2021/06/29 07:58:50;;;;;;;5.53;5.03;;;20.40;99.90;;;;;;5076819;28;20179;-51
2021/06/29 08:01:17;;;;;;;6.37;5.20;;;20.40;99.90;;;;;;5076033;28;20175;-50
2021/06/29 08:03:44;;;;;;;5.60;5.17;;;20.60;99.90;;;;;;5076933;28;20186;-51
2021/06/29 08:06:10;;;;;;;5.53;5.03;;;20.70;99.90;;;;;;5076332;28;20244;-54
2021/06/29 08:08:36;;;;;;;5.33;4.90;;;20.70;99.90;;;;;;5076708;28;20678;-61
2021/06/29 08:11:08;;;;;;;6.45;4.70;;;20.90;99.90;;;;;;5076683;28;20187;-60
2021/06/29 08:13:34;;;;;;;4.68;4.28;;;21.10;99.90;;;;;;5074629;28;20272;-59
2021/06/29 08:16:00;;;;;;;4.55;4.15;;;21.30;99.90;;;;;;5075239;28;20175;-59
2021/06/29 08:18:28;;;;;;;5.18;4.65;;;21.40;99.90;;;;;;5073788;28;20206;-56
2021/06/29 08:20:55;;;;;;;4.30;4.00;;;21.30;99.90;;;;;;5075221;28;20667;-57
2021/06/29 08:23:21;;;;;;;4.05;3.75;;;21.20;99.90;;;;;;5058260;28;20178;-61
2021/06/29 08:25:46;;;;;;;3.85;3.42;;;21.20;99.90;;;;;;5076670;28;20256;-58
2021/06/29 08:28:13;;;;;;;3.97;3.58;;;21.40;99.90;;;;;;5076790;28;20238;-53
2021/06/29 08:30:39;;;;;;;4.28;3.38;;;21.60;99.90;;;;;;5076376;28;20701;-59
2021/06/29 08:33:10;;;;;;;3.58;3.28;;;21.80;99.90;;;;;;5076545;28;20188;-58
2021/06/29 08:35:36;;;;;;;4.20;3.00;;;22.00;99.90;;;;;;5075789;28;20201;-59
2021/06/29 08:38:02;;;;;;;3.30;3.00;;;22.00;99.90;;;;;;5076546;28;20205;-59
2021/06/29 08:40:28;;;;;;;4.45;3.03;;;22.20;99.90;;;;;;5076179;28;20194;-60
2021/06/29 08:42:54;;;;;;;3.65;3.08;;;22.50;99.90;;;;;;5075533;28;20167;-61
2021/06/29 08:45:19;;;;;;;4.25;2.90;;;22.60;99.90;;;;;;5076518;28;20304;-58
2021/06/29 08:47:45;;;;;;;3.30;2.65;;;22.60;99.90;;;;;;5076323;28;20193;-55
2021/06/29 08:50:14;;;;;;;2.55;2.35;;;22.70;99.90;;;;;;5076621;28;20233;-61
2021/06/29 08:52:40;;;;;;;2.90;2.22;;;23.10;99.90;;;;;;5075144;28;20206;-58
2021/06/29 08:55:09;;;;;;;2.83;2.10;;;23.50;99.90;;;;;;5076349;28;20252;-55
2021/06/29 08:57:34;;;;;;;2.22;2.10;;;23.50;99.90;;;;;;5075987;28;20252;-61
2021/06/29 09:00:00;;;;;;;2.50;2.25;;;23.50;99.90;;;;;;5074454;28;20253;-55
2021/06/29 09:02:27;;;;;;;2.70;2.50;;;23.60;99.90;;;;;;5075827;28;20236;-52
2021/06/29 09:04:58;;;;;;;2.80;2.33;;;23.40;99.90;;;;;;5075337;28;20187;-58
2021/06/29 09:07:26;;;;;;;2.00;1.90;;;23.60;99.90;;;;;;5076032;28;20743;-59
2021/06/29 09:09:54;;;;;;;3.50;2.40;;;24.10;99.90;;;;;;5075734;28;20181;-58
2021/06/29 09:12:45;;;;;;;3.00;2.17;;;24.60;99.90;;;;;;5074267;28;20275;-57
2021/06/29 09:15:24;;;;;;;2.13;2.03;;;24.80;99.90;;;;;;5073527;28;20179;-58
2021/06/29 09:17:51;;;;;;;2.20;2.00;;;24.80;99.90;;;;;;5073929;28;20285;-55
2021/06/29 09:20:33;;;;;;;2.13;1.90;;;25.10;99.90;;;;;;5075595;28;20198;-59
2021/06/29 09:23:10;;;;;;;3.00;2.00;;;25.70;99.90;;;;;;5074623;28;20213;-60
2021/06/29 09:25:35;;;;;;;3.47;1.88;;;26.20;99.90;;;;;;5075331;28;20170;-51
2021/06/29 09:28:01;;;;;;;3.28;1.88;;;26.30;99.90;;;;;;5074047;28;20610;-56
2021/06/29 09:30:29;;;;;;;1.73;1.60;;;26.50;99.90;;;;;;5074868;28;20175;-53
2021/06/29 09:33:06;;;;;;;3.25;2.10;;;26.80;99.90;;;;;;5074875;28;20171;-57
2021/06/29 09:35:33;;;;;;;2.03;1.92;;;26.70;99.90;;;;;;5074501;28;20186;-56
2021/06/29 09:37:59;;;;;;;3.45;2.50;;;26.50;99.90;;;;;;5075412;28;20233;-60
2021/06/29 09:40:28;;;;;;;2.40;2.20;;;26.30;99.90;;;;;;5075181;28;20741;-57
2021/06/29 09:43:05;;;;;;;2.97;2.17;;;26.20;99.90;;;;;;5074267;28;20257;-53
2021/06/29 09:45:37;;;;;;;3.10;2.22;;;26.10;99.90;;;;;;5075313;28;20202;-55
2021/06/29 09:48:08;;;;;;;1.92;1.83;;;25.90;99.90;;;;;;5075534;28;20190;-60
2021/06/29 09:50:50;;;;;;;2.30;2.05;;;26.20;99.90;;;;;;5075587;28;20206;-55
2021/06/29 09:53:20;;;;;;;2.53;2.30;;;26.00;99.90;;;;;;5074229;28;20191;-56
2021/06/29 09:55:48;;;;;;;2.13;2.03;;;26.20;99.90;;;;;;5073727;28;20179;-59
2021/06/29 09:58:15;;;;;;;2.22;2.08;;;26.50;99.90;;;;;;5073855;28;20186;-59
2021/06/29 10:00:45;;;;;;;3.22;2.22;;;26.20;99.90;;;;;;5074804;28;20210;-55
2021/06/29 10:03:37;;;;;;;2.40;2.20;;;26.10;99.90;;;;;;5074605;28;20259;-54
2021/06/29 10:06:10;;;;;;;2.20;2.00;;;25.50;99.90;;;;;;5074732;28;20178;-58
2021/06/29 10:08:37;;;;;;;3.03;2.40;;;25.10;99.90;;;;;;5074144;28;20195;-56
2021/06/29 10:11:08;;;;;;;2.83;2.20;;;25.00;99.90;;;;;;5074599;28;20181;-56
2021/06/29 10:13:41;;;;;;;2.20;2.00;;;25.30;99.90;;;;;;5073997;28;20171;-58
2021/06/29 10:16:08;;;;;;;2.70;2.00;;;26.10;99.90;;;;;;5074988;28;20186;-58
2021/06/29 10:18:40;;;;;;;2.53;2.33;;;26.60;99.90;;;;;;5071136;28;20204;-54
2021/06/29 10:21:23;;;;;;;2.83;2.60;;;26.60;99.90;;;;;;5073651;28;20186;-54
2021/06/29 10:23:56;;;;;;;4.18;2.10;;;26.80;99.90;;;;;;5071921;28;20162;-57
2021/06/29 10:26:23;;;;;;;2.78;2.03;;;27.10;99.90;;;;;;5071782;28;20689;-55
2021/06/29 10:28:50;;;;;;;2.10;2.00;;;27.30;99.90;;;;;;5073690;28;20175;-59
2021/06/29 10:31:30;;;;;;;1.90;1.80;;;27.30;99.90;;;;;;5073456;28;20179;-57
2021/06/29 10:34:01;;;;;;;2.40;2.20;;;27.30;99.90;;;;;;5071495;28;20191;-60
2021/06/29 10:36:29;;;;;;;3.47;2.10;;;27.30;99.90;;;;;;5073014;28;20178;-59
2021/06/29 10:38:57;;;;;;;2.30;2.10;;;27.70;99.90;;;;;;5072754;28;20179;-60
2021/06/29 10:41:33;;;;;;;2.20;2.10;;;28.00;99.90;;;;;;5073541;28;20683;-56
2021/06/29 10:43:59;;;;;;;2.42;1.92;;;28.40;99.90;;;;;;5073236;28;20706;-57
2021/06/29 10:46:28;;;;;;;2.10;1.90;;;28.70;99.90;;;;;;5070081;28;20199;-58
2021/06/29 10:48:55;;;;;;;2.72;2.13;;;28.70;99.90;;;;;;5071805;28;20657;-60
2021/06/29 10:51:39;;;;;;;2.58;2.17;;;28.50;99.90;;;;;;5072707;28;20205;-51
2021/06/29 10:54:46;;;;;;;2.42;2.22;;;28.30;99.90;;;;;;5073897;28;20541;-56
2021/06/29 10:57:12;;;;;;;2.65;2.45;;;28.20;99.90;;;;;;5072402;28;20757;-54
2021/06/29 10:59:40;;;;;;;3.55;2.03;;;28.00;99.90;;;;;;5073744;28;20216;-58
2021/06/29 11:02:14;;;;;;;2.63;1.90;;;28.00;99.90;;;;;;5072781;28;20177;-59
2021/06/29 11:04:49;;;;;;;2.58;2.38;;;28.30;99.90;;;;;;5073582;28;20578;-60
2021/06/29 11:07:27;;;;;;;2.45;2.25;;;28.40;99.90;;;;;;5073494;28;20196;-56
2021/06/29 11:09:53;;;;;;;2.50;2.30;;;27.80;99.90;;;;;;5073640;28;20177;-52
2021/06/29 11:12:21;;;;;;;2.33;2.20;;;27.50;99.90;;;;;;5072458;28;20198;-51
2021/06/29 11:14:48;;;;;;;2.25;1.98;;;27.60;99.90;;;;;;5073679;28;20242;-54
2021/06/29 11:17:18;;;;;;;3.13;2.22;;;28.00;99.90;;;;;;5073289;28;20203;-60
2021/06/29 11:20:04;;;;;;;3.10;2.00;;;28.50;99.90;;;;;;5072772;28;20302;-58
2021/06/29 11:22:51;;;;;;;2.15;1.90;;;28.90;99.90;;;;;;5073414;28;20174;-59
2021/06/29 11:25:54;;;;;;;3.08;2.50;;;29.40;99.90;;;;;;5063931;28;20212;-54
2021/06/29 11:28:28;;;;;;;2.45;2.25;;;29.40;99.90;;;;;;5070601;28;20628;-56
2021/06/29 11:30:56;;;;;;;3.33;2.33;;;29.10;99.90;;;;;;5066080;28;20178;-60
2021/06/29 11:33:44;;;;;;;2.10;2.00;;;28.90;99.90;;;;;;5073704;28;20216;-59
2021/06/29 11:36:45;;;;;;;3.15;2.55;;;29.30;99.90;;;;;;5073241;28;20179;-58
2021/06/29 11:39:20;;;;;;;2.17;1.98;;;29.10;99.90;;;;;;5072832;28;20635;-60
2021/06/29 11:41:55;;;;;;;2.17;1.95;;;28.60;99.90;;;;;;5072582;28;20190;-58
2021/06/29 11:44:21;;;;;;;2.75;2.55;;;28.60;99.90;;;;;;5072196;28;20178;-55
2021/06/29 11:46:54;;;;;;;3.38;2.60;;;28.50;99.90;;;;;;5071757;28;20208;-61
2021/06/29 11:49:29;;;;;;;3.25;2.22;;;28.10;99.90;;;;;;5072253;28;20186;-53
2021/06/29 11:52:04;;;;;;;2.75;2.50;;;28.10;99.90;;;;;;5072566;28;20630;-61
2021/06/29 11:54:43;;;;;;;2.30;2.10;;;28.30;99.90;;;;;;5070563;28;20265;-59
2021/06/29 11:57:38;;;;;;;2.33;2.20;;;28.70;99.90;;;;;;5069908;28;20194;-60
2021/06/29 12:00:16;;;;;;;2.42;2.22;;;28.80;99.90;;;;;;5069423;28;20201;-58
2021/06/29 12:02:42;;;;;;;2.38;2.20;;;29.10;99.90;;;;;;5070450;28;20191;-55
2021/06/29 12:05:16;;;;;;;2.30;2.10;;;29.00;99.90;;;;;;5069845;28;20175;-59
2021/06/29 12:07:44;;;;;;;2.25;2.08;;;29.00;99.90;;;;;;5069446;28;20616;-54
2021/06/29 12:10:37;;;;;;;2.63;2.00;;;29.10;99.90;;;;;;5066413;28;20231;-57
2021/06/29 12:13:05;;;;;;;2.42;2.22;;;29.40;99.90;;;;;;5067624;28;20266;-60
2021/06/29 12:15:33;;;;;;;2.17;2.08;;;29.80;99.90;;;;;;5070157;28;20182;-53
2021/06/29 12:18:00;;;;;;;2.72;2.50;;;30.10;99.90;;;;;;5069877;28;20596;-57
2021/06/29 12:20:54;;;;;;;2.50;2.30;;;30.10;99.90;;;;;;5072330;28;20233;-58
2021/06/29 12:23:22;;;;;;;1.95;1.85;;;30.10;99.90;;;;;;5063267;28;20336;-53
2021/06/29 12:25:50;;;;;;;2.67;2.47;;;30.20;99.90;;;;;;5072373;28;20166;-60
2021/06/29 12:28:20;;;;;;;1.90;1.80;;;30.40;99.90;;;;;;5071373;28;20675;-58
2021/06/29 12:30:51;;;;;;;2.05;1.92;;;30.50;99.90;;;;;;5072011;28;20265;-60
2021/06/29 12:33:39;;;;;;;2.00;1.90;;;30.70;99.90;;;;;;5072379;28;20677;-56
2021/06/29 12:36:07;;;;;;;2.65;2.00;;;30.80;99.90;;;;;;5073524;28;20199;-58
2021/06/29 12:38:57;;;;;;;2.10;2.00;;;30.80;99.90;;;;;;5075847;28;20222;-55
2021/06/29 12:41:36;;;;;;;2.63;2.20;;;30.70;99.90;;;;;;5076628;28;20630;-58
2021/06/29 12:44:06;;;;;;;2.50;2.30;;;30.10;99.90;;;;;;5075782;28;20202;-60
2021/06/29 12:46:50;;;;;;;2.40;2.20;;;29.80;99.90;;;;;;5075690;28;20217;-60
2021/06/29 12:49:26;;;;;;;2.00;1.90;;;29.30;99.90;;;;;;5075674;28;20170;-57
2021/06/29 12:52:01;;;;;;;2.35;2.25;;;29.10;99.90;;;;;;5075882;28;20542;-59
2021/06/29 12:54:29;;;;;;;2.78;2.55;;;29.20;99.90;;;;;;5075744;28;20219;-57
2021/06/29 12:56:57;;;;;;;2.65;2.45;;;29.50;99.90;;;;;;5076538;28;20681;-58